sensor_id;sensor_type;location;lat;lon;timestamp;pressure;altitude;pressure_sealevel;temperature;humidity
76728;BME280;65652;53.132;18.026;2023-12-20T08:13:46;100177.38;;;6.29;79.74
76728;BME280;65652;53.132;18.026;2023-12-20T08:16:13;100175.30;;;6.28;79.54
76728;BME280;65652;53.132;18.026;2023-12-20T08:18:39;100175.29;;;6.29;79.82
76728;BME280;65652;53.132;18.026;2023-12-20T08:21:06;100172.33;;;6.28;79.70
76728;BME280;65652;53.132;18.026;2023-12-20T08:23:35;100176.89;;;6.28;79.69
76728;BME280;65652;53.132;18.026;2023-12-20T08:26:08;100173.71;;;6.29;79.98
76728;BME280;65652;53.132;18.026;2023-12-20T08:28:36;100170.38;;;6.31;79.78
76728;BME280;65652;53.132;18.026;2023-12-20T08:31:02;100168.41;;;6.31;79.91
76728;BME280;65652;53.132;18.026;2023-12-20T08:33:29;100169.56;;;6.35;79.94
76728;BME280;65652;53.132;18.026;2023-12-20T08:35:55;100167.77;;;6.37;80.10
76728;BME280;65652;53.132;18.026;2023-12-20T08:38:21;100167.61;;;6.39;80.05
76728;BME280;65652;53.132;18.026;2023-12-20T08:40:47;100173.01;;;6.40;80.07
76728;BME280;65652;53.132;18.026;2023-12-20T08:43:14;100171.67;;;6.41;79.93
76728;BME280;65652;53.132;18.026;2023-12-20T08:45:40;100169.73;;;6.43;79.82
76728;BME280;65652;53.132;18.026;2023-12-20T08:48:07;100170.12;;;6.43;79.48
76728;BME280;65652;53.132;18.026;2023-12-20T08:50:33;100168.64;;;6.42;79.70
76728;BME280;65652;53.132;18.026;2023-12-20T08:52:59;100163.16;;;6.40;79.60
76728;BME280;65652;53.132;18.026;2023-12-20T08:55:25;100166.73;;;6.39;79.46
76728;BME280;65652;53.132;18.026;2023-12-20T08:57:54;100164.89;;;6.38;79.41
76728;BME280;65652;53.132;18.026;2023-12-20T09:00:20;100163.77;;;6.37;79.70
76728;BME280;65652;53.132;18.026;2023-12-20T09:02:46;100160.02;;;6.36;79.46
76728;BME280;65652;53.132;18.026;2023-12-20T09:05:13;100161.70;;;6.36;79.76
76728;BME280;65652;53.132;18.026;2023-12-20T09:07:39;100160.16;;;6.36;79.64
76728;BME280;65652;53.132;18.026;2023-12-20T09:10:05;100154.46;;;6.39;79.33
76728;BME280;65652;53.132;18.026;2023-12-20T09:12:32;100150.08;;;6.44;79.23
76728;BME280;65652;53.132;18.026;2023-12-20T09:14:58;100150.97;;;6.46;79.11
76728;BME280;65652;53.132;18.026;2023-12-20T09:17:24;100145.27;;;6.47;78.86
76728;BME280;65652;53.132;18.026;2023-12-20T09:19:50;100141.73;;;6.49;79.12
76728;BME280;65652;53.132;18.026;2023-12-20T09:22:18;100145.63;;;6.53;78.69
76728;BME280;65652;53.132;18.026;2023-12-20T09:24:44;100143.02;;;6.55;78.78
76728;BME280;65652;53.132;18.026;2023-12-20T09:27:11;100138.63;;;6.59;78.56
76728;BME280;65652;53.132;18.026;2023-12-20T09:29:37;100135.01;;;6.65;78.66
76728;BME280;65652;53.132;18.026;2023-12-20T09:32:04;100141.51;;;6.72;77.94
76728;BME280;65652;53.132;18.026;2023-12-20T09:34:30;100136.35;;;6.77;77.72
76728;BME280;65652;53.132;18.026;2023-12-20T09:36:56;100139.17;;;6.79;77.77
76728;BME280;65652;53.132;18.026;2023-12-20T09:39:22;100136.34;;;6.79;77.33
76728;BME280;65652;53.132;18.026;2023-12-20T09:42:03;100143.94;;;6.81;77.51
76728;BME280;65652;53.132;18.026;2023-12-20T09:44:34;100145.80;;;6.82;77.28
76728;BME280;65652;53.132;18.026;2023-12-20T09:47:04;100138.01;;;6.80;76.93
76728;BME280;65652;53.132;18.026;2023-12-20T09:49:32;100142.14;;;6.81;76.76
76728;BME280;65652;53.132;18.026;2023-12-20T09:52:00;100132.48;;;6.84;76.15
76728;BME280;65652;53.132;18.026;2023-12-20T09:54:27;100120.10;;;6.89;76.94
76728;BME280;65652;53.132;18.026;2023-12-20T09:56:54;100115.20;;;6.91;76.15
76728;BME280;65652;53.132;18.026;2023-12-20T09:59:20;100105.55;;;6.93;75.78
76728;BME280;65652;53.132;18.026;2023-12-20T10:01:48;100100.77;;;6.95;74.94
76728;BME280;65652;53.132;18.026;2023-12-20T10:04:15;100091.36;;;6.99;74.91
76728;BME280;65652;53.132;18.026;2023-12-20T10:06:42;100089.68;;;7.02;74.41
76728;BME280;65652;53.132;18.026;2023-12-20T10:09:10;100087.70;;;7.09;74.61
76728;BME280;65652;53.132;18.026;2023-12-20T10:11:38;100081.87;;;7.14;75.24
76728;BME280;65652;53.132;18.026;2023-12-20T10:14:05;100088.67;;;7.24;75.50
76728;BME280;65652;53.132;18.026;2023-12-20T10:16:33;100082.82;;;7.36;75.06
76728;BME280;65652;53.132;18.026;2023-12-20T10:19:00;100079.86;;;7.48;75.12
76728;BME280;65652;53.132;18.026;2023-12-20T10:21:30;100076.06;;;7.53;74.42
76728;BME280;65652;53.132;18.026;2023-12-20T10:23:57;100070.31;;;7.54;74.75
76728;BME280;65652;53.132;18.026;2023-12-20T10:26:25;100065.76;;;7.54;74.13
76728;BME280;65652;53.132;18.026;2023-12-20T10:28:56;100057.56;;;7.52;73.73
76728;BME280;65652;53.132;18.026;2023-12-20T10:31:35;100056.76;;;7.49;74.61
76728;BME280;65652;53.132;18.026;2023-12-20T10:34:02;100058.98;;;7.48;74.47
76728;BME280;65652;53.132;18.026;2023-12-20T10:36:31;100049.33;;;7.51;74.41
76728;BME280;65652;53.132;18.026;2023-12-20T10:38:58;100045.53;;;7.55;74.28
76728;BME280;65652;53.132;18.026;2023-12-20T10:41:29;100039.31;;;7.56;74.31
76728;BME280;65652;53.132;18.026;2023-12-20T10:44:02;100041.65;;;7.55;74.07
76728;BME280;65652;53.132;18.026;2023-12-20T10:46:30;100035.52;;;7.55;73.59
76728;BME280;65652;53.132;18.026;2023-12-20T10:48:57;100033.14;;;7.54;73.66
76728;BME280;65652;53.132;18.026;2023-12-20T10:51:24;100030.61;;;7.53;73.42
76728;BME280;65652;53.132;18.026;2023-12-20T10:53:56;100025.92;;;7.52;73.72
76728;BME280;65652;53.132;18.026;2023-12-20T10:56:22;100026.13;;;7.52;73.84
76728;BME280;65652;53.132;18.026;2023-12-20T10:58:52;100023.86;;;7.47;73.45
76728;BME280;65652;53.132;18.026;2023-12-20T11:01:19;100015.26;;;7.47;74.04
76728;BME280;65652;53.132;18.026;2023-12-20T11:03:53;100011.34;;;7.46;73.58
76728;BME280;65652;53.132;18.026;2023-12-20T11:06:33;100006.67;;;7.45;73.56
76728;BME280;65652;53.132;18.026;2023-12-20T11:12:08;99991.87;;;7.43;73.88
76728;BME280;65652;53.132;18.026;2023-12-20T11:17:14;99982.89;;;7.38;73.18
76728;BME280;65652;53.132;18.026;2023-12-20T11:22:25;99970.59;;;7.31;73.49
76728;BME280;65652;53.132;18.026;2023-12-20T11:24:52;99965.15;;;7.31;73.47
76728;BME280;65652;53.132;18.026;2023-12-20T11:27:20;99961.16;;;7.31;73.64
76728;BME280;65652;53.132;18.026;2023-12-20T11:29:53;99952.98;;;7.30;73.46
76728;BME280;65652;53.132;18.026;2023-12-20T11:34:57;99945.94;;;7.30;73.63
76728;BME280;65652;53.132;18.026;2023-12-20T11:37:31;99940.86;;;7.32;73.61
76728;BME280;65652;53.132;18.026;2023-12-20T11:40:05;99940.20;;;7.34;73.87
76728;BME280;65652;53.132;18.026;2023-12-20T11:42:37;99934.24;;;7.33;73.37
76728;BME280;65652;53.132;18.026;2023-12-20T11:45:04;99923.39;;;7.35;73.91
76728;BME280;65652;53.132;18.026;2023-12-20T11:47:31;99921.26;;;7.31;74.29
76728;BME280;65652;53.132;18.026;2023-12-20T11:49:57;99923.65;;;7.32;74.14
76728;BME280;65652;53.132;18.026;2023-12-20T11:52:26;99920.15;;;7.34;74.17
76728;BME280;65652;53.132;18.026;2023-12-20T11:54:52;99920.96;;;7.33;74.10
76728;BME280;65652;53.132;18.026;2023-12-20T11:57:19;99912.80;;;7.32;74.12
76728;BME280;65652;53.132;18.026;2023-12-20T11:59:45;99907.42;;;7.31;74.30
76728;BME280;65652;53.132;18.026;2023-12-20T12:02:14;99905.40;;;7.28;74.37
76728;BME280;65652;53.132;18.026;2023-12-20T12:04:41;99894.41;;;7.25;74.36
76728;BME280;65652;53.132;18.026;2023-12-20T12:07:08;99894.43;;;7.23;74.89
76728;BME280;65652;53.132;18.026;2023-12-20T12:09:34;99889.30;;;7.23;74.78
76728;BME280;65652;53.132;18.026;2023-12-20T12:12:01;99883.52;;;7.19;74.83
76728;BME280;65652;53.132;18.026;2023-12-20T12:14:28;99884.23;;;7.19;75.12
76728;BME280;65652;53.132;18.026;2023-12-20T12:16:54;99877.17;;;7.15;75.37
76728;BME280;65652;53.132;18.026;2023-12-20T12:19:25;99878.69;;;7.14;75.41
76728;BME280;65652;53.132;18.026;2023-12-20T12:22:13;99873.46;;;7.12;75.24
76728;BME280;65652;53.132;18.026;2023-12-20T12:24:45;99870.67;;;7.07;75.59
76728;BME280;65652;53.132;18.026;2023-12-20T12:27:12;99864.98;;;7.04;75.40
76728;BME280;65652;53.132;18.026;2023-12-20T12:29:39;99858.20;;;7.03;75.69
76728;BME280;65652;53.132;18.026;2023-12-20T12:32:07;99856.09;;;7.01;75.81
76728;BME280;65652;53.132;18.026;2023-12-20T12:34:34;99853.11;;;7.02;75.82
76728;BME280;65652;53.132;18.026;2023-12-20T12:37:01;99853.77;;;7.02;76.33
76728;BME280;65652;53.132;18.026;2023-12-20T12:39:27;99844.78;;;7.00;76.07
76728;BME280;65652;53.132;18.026;2023-12-20T12:41:56;99844.30;;;7.00;75.65
76728;BME280;65652;53.132;18.026;2023-12-20T12:44:23;99840.61;;;6.98;76.37
76728;BME280;65652;53.132;18.026;2023-12-20T12:46:53;99840.88;;;6.97;75.98
76728;BME280;65652;53.132;18.026;2023-12-20T12:49:20;99833.30;;;6.95;76.03
76728;BME280;65652;53.132;18.026;2023-12-20T12:51:47;99828.76;;;6.95;76.24
76728;BME280;65652;53.132;18.026;2023-12-20T12:54:14;99824.98;;;6.94;76.41
76728;BME280;65652;53.132;18.026;2023-12-20T12:56:42;99825.79;;;6.93;76.47
76728;BME280;65652;53.132;18.026;2023-12-20T12:59:09;99818.20;;;6.91;76.64
76728;BME280;65652;53.132;18.026;2023-12-20T13:01:35;99821.85;;;6.89;76.84
76728;BME280;65652;53.132;18.026;2023-12-20T13:04:01;99828.30;;;6.88;76.48
76728;BME280;65652;53.132;18.026;2023-12-20T13:06:29;99825.05;;;6.87;76.60
76728;BME280;65652;53.132;18.026;2023-12-20T13:08:56;99826.82;;;6.85;76.39
76728;BME280;65652;53.132;18.026;2023-12-20T13:11:22;99821.98;;;6.84;76.78
76728;BME280;65652;53.132;18.026;2023-12-20T13:13:48;99821.25;;;6.84;76.79
76728;BME280;65652;53.132;18.026;2023-12-20T13:16:14;99818.17;;;6.83;76.64
76728;BME280;65652;53.132;18.026;2023-12-20T13:18:41;99811.74;;;6.83;76.84
76728;BME280;65652;53.132;18.026;2023-12-20T13:21:08;99811.27;;;6.84;76.56
76728;BME280;65652;53.132;18.026;2023-12-20T13:23:35;99807.80;;;6.84;76.65
76728;BME280;65652;53.132;18.026;2023-12-20T13:26:02;99803.57;;;6.84;76.45
76728;BME280;65652;53.132;18.026;2023-12-20T13:28:29;99801.98;;;6.84;76.33
76728;BME280;65652;53.132;18.026;2023-12-20T13:30:55;99807.11;;;6.83;76.36
76728;BME280;65652;53.132;18.026;2023-12-20T13:33:21;99801.88;;;6.83;76.12
76728;BME280;65652;53.132;18.026;2023-12-20T13:35:47;99810.59;;;6.84;76.25
76728;BME280;65652;53.132;18.026;2023-12-20T13:38:14;99804.41;;;6.84;75.62
76728;BME280;65652;53.132;18.026;2023-12-20T13:40:40;99806.49;;;6.87;75.74
76728;BME280;65652;53.132;18.026;2023-12-20T13:43:06;99800.06;;;6.86;75.67
76728;BME280;65652;53.132;18.026;2023-12-20T13:45:32;99792.59;;;6.87;76.06
76728;BME280;65652;53.132;18.026;2023-12-20T13:47:58;99791.94;;;6.88;75.78
76728;BME280;65652;53.132;18.026;2023-12-20T13:50:25;99784.48;;;6.89;76.16
76728;BME280;65652;53.132;18.026;2023-12-20T13:52:52;99783.81;;;6.89;76.10
76728;BME280;65652;53.132;18.026;2023-12-20T13:55:18;99786.95;;;6.89;76.22
76728;BME280;65652;53.132;18.026;2023-12-20T13:57:48;99788.31;;;6.90;75.75
76728;BME280;65652;53.132;18.026;2023-12-20T14:00:14;99781.70;;;6.91;75.92
76728;BME280;65652;53.132;18.026;2023-12-20T14:02:41;99770.47;;;6.91;75.60
76728;BME280;65652;53.132;18.026;2023-12-20T14:05:11;99771.47;;;6.92;75.70
76728;BME280;65652;53.132;18.026;2023-12-20T14:07:37;99765.25;;;6.93;75.44
76728;BME280;65652;53.132;18.026;2023-12-20T14:10:04;99758.91;;;6.93;75.19
76728;BME280;65652;53.132;18.026;2023-12-20T14:12:31;99756.67;;;6.92;75.27
76728;BME280;65652;53.132;18.026;2023-12-20T14:15:01;99753.04;;;6.92;75.09
76728;BME280;65652;53.132;18.026;2023-12-20T14:17:28;99750.25;;;6.91;75.11
76728;BME280;65652;53.132;18.026;2023-12-20T14:19:54;99750.59;;;6.91;75.29
76728;BME280;65652;53.132;18.026;2023-12-20T14:22:20;99751.23;;;6.90;74.85
76728;BME280;65652;53.132;18.026;2023-12-20T14:24:46;99750.16;;;6.91;74.79
76728;BME280;65652;53.132;18.026;2023-12-20T14:27:13;99752.92;;;6.91;75.40
76728;BME280;65652;53.132;18.026;2023-12-20T14:29:39;99759.29;;;6.90;75.10
76728;BME280;65652;53.132;18.026;2023-12-20T14:32:05;99756.70;;;6.90;74.98
76728;BME280;65652;53.132;18.026;2023-12-20T14:34:32;99755.64;;;6.90;74.97
76728;BME280;65652;53.132;18.026;2023-12-20T14:36:58;99752.55;;;6.92;74.88
76728;BME280;65652;53.132;18.026;2023-12-20T14:39:24;99749.89;;;6.92;74.82
76728;BME280;65652;53.132;18.026;2023-12-20T14:41:50;99748.39;;;6.93;74.98
76728;BME280;65652;53.132;18.026;2023-12-20T14:44:16;99750.11;;;6.93;74.79
76728;BME280;65652;53.132;18.026;2023-12-20T14:46:43;99748.84;;;6.93;74.68
76728;BME280;65652;53.132;18.026;2023-12-20T14:49:09;99751.44;;;6.94;74.49
76728;BME280;65652;53.132;18.026;2023-12-20T14:51:35;99753.67;;;6.95;74.49
76728;BME280;65652;53.132;18.026;2023-12-20T14:54:03;99746.43;;;6.95;74.33
76728;BME280;65652;53.132;18.026;2023-12-20T14:56:29;99744.95;;;6.96;74.32
76728;BME280;65652;53.132;18.026;2023-12-20T14:58:55;99736.19;;;6.98;74.47
76728;BME280;65652;53.132;18.026;2023-12-20T15:01:22;99733.02;;;6.98;74.22
76728;BME280;65652;53.132;18.026;2023-12-20T15:03:49;99727.54;;;6.98;74.16
76728;BME280;65652;53.132;18.026;2023-12-20T15:06:15;99717.14;;;6.99;74.15
76728;BME280;65652;53.132;18.026;2023-12-20T15:08:42;99713.25;;;6.99;73.98
76728;BME280;65652;53.132;18.026;2023-12-20T15:11:08;99699.52;;;6.99;74.11
76728;BME280;65652;53.132;18.026;2023-12-20T15:13:34;99694.52;;;7.01;73.85
76728;BME280;65652;53.132;18.026;2023-12-20T15:16:00;99697.89;;;7.00;73.90
76728;BME280;65652;53.132;18.026;2023-12-20T15:18:26;99691.00;;;7.01;74.01
76728;BME280;65652;53.132;18.026;2023-12-20T15:20:52;99689.80;;;7.00;74.04
76728;BME280;65652;53.132;18.026;2023-12-20T15:23:18;99681.17;;;6.98;73.83
76728;BME280;65652;53.132;18.026;2023-12-20T15:25:46;99680.70;;;6.98;74.33
76728;BME280;65652;53.132;18.026;2023-12-20T15:28:12;99685.95;;;6.96;74.39
76728;BME280;65652;53.132;18.026;2023-12-20T15:30:38;99678.41;;;6.92;74.57
76728;BME280;65652;53.132;18.026;2023-12-20T15:33:04;99671.55;;;6.88;74.99
76728;BME280;65652;53.132;18.026;2023-12-20T15:35:31;99663.41;;;6.83;75.44
76728;BME280;65652;53.132;18.026;2023-12-20T15:37:57;99659.52;;;6.78;75.37
76728;BME280;65652;53.132;18.026;2023-12-20T15:40:24;99654.64;;;6.75;75.78
76728;BME280;65652;53.132;18.026;2023-12-20T15:42:50;99656.52;;;6.72;75.94
76728;BME280;65652;53.132;18.026;2023-12-20T15:45:16;99657.06;;;6.68;75.80
76728;BME280;65652;53.132;18.026;2023-12-20T15:47:43;99655.45;;;6.65;76.01
76728;BME280;65652;53.132;18.026;2023-12-20T15:50:11;99650.48;;;6.61;75.97
76728;BME280;65652;53.132;18.026;2023-12-20T15:52:37;99652.18;;;6.58;76.10
76728;BME280;65652;53.132;18.026;2023-12-20T15:55:04;99655.48;;;6.52;76.32
76728;BME280;65652;53.132;18.026;2023-12-20T15:57:30;99649.56;;;6.50;76.36
76728;BME280;65652;53.132;18.026;2023-12-20T15:59:56;99634.76;;;6.47;76.39
76728;BME280;65652;53.132;18.026;2023-12-20T16:02:22;99634.88;;;6.45;76.51
76728;BME280;65652;53.132;18.026;2023-12-20T16:04:49;99644.62;;;6.42;76.92
76728;BME280;65652;53.132;18.026;2023-12-20T16:07:15;99649.81;;;6.41;77.03
76728;BME280;65652;53.132;18.026;2023-12-20T16:09:41;99653.23;;;6.40;77.10
76728;BME280;65652;53.132;18.026;2023-12-20T16:12:07;99649.76;;;6.40;77.29
76728;BME280;65652;53.132;18.026;2023-12-20T16:14:34;99642.52;;;6.38;77.11
76728;BME280;65652;53.132;18.026;2023-12-20T16:17:00;99646.43;;;6.38;77.51
76728;BME280;65652;53.132;18.026;2023-12-20T16:19:27;99645.50;;;6.36;77.50
76728;BME280;65652;53.132;18.026;2023-12-20T16:21:53;99649.57;;;6.36;77.36
76728;BME280;65652;53.132;18.026;2023-12-20T16:24:19;99645.33;;;6.38;77.21
76728;BME280;65652;53.132;18.026;2023-12-20T16:26:45;99642.24;;;6.37;77.26
76728;BME280;65652;53.132;18.026;2023-12-20T16:29:11;99645.02;;;6.38;77.31
76728;BME280;65652;53.132;18.026;2023-12-20T16:31:39;99648.26;;;6.39;77.13
76728;BME280;65652;53.132;18.026;2023-12-20T16:34:05;99649.34;;;6.40;77.08
76728;BME280;65652;53.132;18.026;2023-12-20T16:36:58;99651.13;;;6.42;76.99
76728;BME280;65652;53.132;18.026;2023-12-20T16:39:24;99641.52;;;6.44;76.77
76728;BME280;65652;53.132;18.026;2023-12-20T16:41:50;99635.41;;;6.45;76.53
76728;BME280;65652;53.132;18.026;2023-12-20T16:44:16;99640.60;;;6.48;76.20
76728;BME280;65652;53.132;18.026;2023-12-20T16:46:43;99645.05;;;6.49;75.87
76728;BME280;65652;53.132;18.026;2023-12-20T16:49:09;99636.61;;;6.51;75.69
76728;BME280;65652;53.132;18.026;2023-12-20T16:51:36;99643.30;;;6.53;75.76
76728;BME280;65652;53.132;18.026;2023-12-20T16:54:02;99644.58;;;6.52;75.68
76728;BME280;65652;53.132;18.026;2023-12-20T16:56:28;99649.99;;;6.51;75.63
76728;BME280;65652;53.132;18.026;2023-12-20T16:58:54;99657.06;;;6.50;75.31
76728;BME280;65652;53.132;18.026;2023-12-20T17:01:20;99663.53;;;6.50;75.14
76728;BME280;65652;53.132;18.026;2023-12-20T17:03:48;99672.73;;;6.49;74.75
76728;BME280;65652;53.132;18.026;2023-12-20T17:06:16;99671.53;;;6.49;74.56
76728;BME280;65652;53.132;18.026;2023-12-20T17:08:42;99677.29;;;6.49;75.02
76728;BME280;65652;53.132;18.026;2023-12-20T17:11:09;99679.65;;;6.43;74.75
76728;BME280;65652;53.132;18.026;2023-12-20T17:13:35;99682.18;;;6.42;74.96
76728;BME280;65652;53.132;18.026;2023-12-20T17:16:01;99694.39;;;6.40;75.52
76728;BME280;65652;53.132;18.026;2023-12-20T17:18:28;99703.23;;;6.32;75.42
76728;BME280;65652;53.132;18.026;2023-12-20T17:20:54;99700.29;;;6.21;75.26
76728;BME280;65652;53.132;18.026;2023-12-20T17:23:20;99699.08;;;6.13;75.47
76728;BME280;65652;53.132;18.026;2023-12-20T17:25:46;99699.30;;;6.06;75.61
76728;BME280;65652;53.132;18.026;2023-12-20T17:28:13;99697.44;;;5.99;75.14
76728;BME280;65652;53.132;18.026;2023-12-20T17:30:39;99703.44;;;5.92;74.56
76728;BME280;65652;53.132;18.026;2023-12-20T17:33:05;99693.04;;;5.87;74.25
76728;BME280;65652;53.132;18.026;2023-12-20T17:35:31;99694.02;;;5.84;74.20
76728;BME280;65652;53.132;18.026;2023-12-20T17:37:57;99691.16;;;5.80;74.24
76728;BME280;65652;53.132;18.026;2023-12-20T17:40:23;99686.68;;;5.77;74.01
76728;BME280;65652;53.132;18.026;2023-12-20T17:42:49;99693.58;;;5.72;73.76
76728;BME280;65652;53.132;18.026;2023-12-20T17:45:16;99693.42;;;5.65;73.93
76728;BME280;65652;53.132;18.026;2023-12-20T17:47:42;99692.87;;;5.62;74.11
76728;BME280;65652;53.132;18.026;2023-12-20T17:50:10;99694.61;;;5.57;74.28
76728;BME280;65652;53.132;18.026;2023-12-20T17:52:36;99694.33;;;5.52;74.14
76728;BME280;65652;53.132;18.026;2023-12-20T17:55:02;99696.84;;;5.48;74.68
76728;BME280;65652;53.132;18.026;2023-12-20T17:57:29;99697.45;;;5.44;74.55
76728;BME280;65652;53.132;18.026;2023-12-20T17:59:55;99696.62;;;5.42;74.56
76728;BME280;65652;53.132;18.026;2023-12-20T18:02:21;99699.80;;;5.40;74.45
76728;BME280;65652;53.132;18.026;2023-12-20T18:04:48;99701.73;;;5.37;74.63
76728;BME280;65652;53.132;18.026;2023-12-20T18:07:14;99702.66;;;5.35;74.58
76728;BME280;65652;53.132;18.026;2023-12-20T18:09:40;99716.17;;;5.32;74.63
76728;BME280;65652;53.132;18.026;2023-12-20T18:12:06;99713.60;;;5.31;74.77
76728;BME280;65652;53.132;18.026;2023-12-20T18:14:34;99718.07;;;5.30;74.74
76728;BME280;65652;53.132;18.026;2023-12-20T18:17:00;99720.38;;;5.30;74.54
76728;BME280;65652;53.132;18.026;2023-12-20T18:19:26;99721.48;;;5.29;74.78
76728;BME280;65652;53.132;18.026;2023-12-20T18:21:52;99722.95;;;5.29;74.70
76728;BME280;65652;53.132;18.026;2023-12-20T18:24:19;99720.62;;;5.29;74.94
76728;BME280;65652;53.132;18.026;2023-12-20T18:26:45;99717.35;;;5.30;75.18
76728;BME280;65652;53.132;18.026;2023-12-20T18:29:11;99724.20;;;5.32;75.09
76728;BME280;65652;53.132;18.026;2023-12-20T18:31:39;99728.58;;;5.34;74.94
76728;BME280;65652;53.132;18.026;2023-12-20T18:34:05;99732.91;;;5.39;74.56
76728;BME280;65652;53.132;18.026;2023-12-20T18:36:31;99729.48;;;5.43;74.55
76728;BME280;65652;53.132;18.026;2023-12-20T18:39:00;99731.03;;;5.45;74.66
76728;BME280;65652;53.132;18.026;2023-12-20T18:41:29;99735.69;;;5.46;74.66
76728;BME280;65652;53.132;18.026;2023-12-20T18:43:55;99732.37;;;5.48;74.46
76728;BME280;65652;53.132;18.026;2023-12-20T18:46:21;99731.55;;;5.51;74.04
76728;BME280;65652;53.132;18.026;2023-12-20T18:48:48;99724.38;;;5.51;73.59
76728;BME280;65652;53.132;18.026;2023-12-20T18:51:14;99729.43;;;5.54;74.07
76728;BME280;65652;53.132;18.026;2023-12-20T18:53:40;99733.19;;;5.55;73.84
76728;BME280;65652;53.132;18.026;2023-12-20T18:56:07;99728.79;;;5.55;73.90
76728;BME280;65652;53.132;18.026;2023-12-20T18:58:33;99728.87;;;5.58;73.71
76728;BME280;65652;53.132;18.026;2023-12-20T19:00:59;99739.96;;;5.62;73.70
76728;BME280;65652;53.132;18.026;2023-12-20T19:03:28;99742.92;;;5.62;73.19
76728;BME280;65652;53.132;18.026;2023-12-20T19:05:54;99745.38;;;5.62;73.14
76728;BME280;65652;53.132;18.026;2023-12-20T19:08:20;99739.38;;;5.62;72.29
76728;BME280;65652;53.132;18.026;2023-12-20T19:10:46;99743.17;;;5.65;72.26
76728;BME280;65652;53.132;18.026;2023-12-20T19:13:12;99746.88;;;5.67;72.46
76728;BME280;65652;53.132;18.026;2023-12-20T19:15:38;99744.36;;;5.68;72.73
76728;BME280;65652;53.132;18.026;2023-12-20T19:18:05;99740.18;;;5.65;72.03
76728;BME280;65652;53.132;18.026;2023-12-20T19:20:31;99746.48;;;5.66;72.00
76728;BME280;65652;53.132;18.026;2023-12-20T19:22:57;99746.23;;;5.69;72.18
76728;BME280;65652;53.132;18.026;2023-12-20T19:25:23;99741.03;;;5.68;71.95
76728;BME280;65652;53.132;18.026;2023-12-20T19:27:49;99744.15;;;5.68;71.34
76728;BME280;65652;53.132;18.026;2023-12-20T19:30:16;99747.29;;;5.71;71.50
76728;BME280;65652;53.132;18.026;2023-12-20T19:32:42;99754.68;;;5.72;71.38
76728;BME280;65652;53.132;18.026;2023-12-20T19:35:08;99755.85;;;5.73;71.53
76728;BME280;65652;53.132;18.026;2023-12-20T19:37:34;99756.08;;;5.73;71.26
76728;BME280;65652;53.132;18.026;2023-12-20T19:40:01;99758.19;;;5.72;71.08
76728;BME280;65652;53.132;18.026;2023-12-20T19:42:27;99752.19;;;5.73;71.42
76728;BME280;65652;53.132;18.026;2023-12-20T19:44:54;99755.45;;;5.71;71.53
76728;BME280;65652;53.132;18.026;2023-12-20T19:47:21;99749.17;;;5.71;71.28
76728;BME280;65652;53.132;18.026;2023-12-20T19:49:47;99751.41;;;5.69;71.54
76728;BME280;65652;53.132;18.026;2023-12-20T19:52:13;99749.69;;;5.67;71.52
76728;BME280;65652;53.132;18.026;2023-12-20T19:54:40;99744.46;;;5.66;71.59
76728;BME280;65652;53.132;18.026;2023-12-20T19:57:06;99755.88;;;5.64;71.19
76728;BME280;65652;53.132;18.026;2023-12-20T19:59:32;99754.05;;;5.61;71.34
76728;BME280;65652;53.132;18.026;2023-12-20T20:01:58;99759.20;;;5.58;71.07
76728;BME280;65652;53.132;18.026;2023-12-20T20:04:26;99760.59;;;5.54;71.49
76728;BME280;65652;53.132;18.026;2023-12-20T20:06:52;99760.64;;;5.51;71.30
76728;BME280;65652;53.132;18.026;2023-12-20T20:09:18;99756.09;;;5.49;71.59
76728;BME280;65652;53.132;18.026;2023-12-20T20:11:45;99755.69;;;5.49;71.43
76728;BME280;65652;53.132;18.026;2023-12-20T20:14:12;99759.46;;;5.48;71.25
76728;BME280;65652;53.132;18.026;2023-12-20T20:16:38;99764.58;;;5.46;70.92
76728;BME280;65652;53.132;18.026;2023-12-20T20:19:05;99762.31;;;5.46;70.86
76728;BME280;65652;53.132;18.026;2023-12-20T20:21:31;99761.84;;;5.45;71.04
76728;BME280;65652;53.132;18.026;2023-12-20T20:23:57;99764.50;;;5.44;71.22
76728;BME280;65652;53.132;18.026;2023-12-20T20:26:23;99762.08;;;5.42;70.78
76728;BME280;65652;53.132;18.026;2023-12-20T20:28:49;99762.38;;;5.41;71.14
76728;BME280;65652;53.132;18.026;2023-12-20T20:31:16;99770.50;;;5.40;71.27
76728;BME280;65652;53.132;18.026;2023-12-20T20:33:42;99780.76;;;5.38;71.18
76728;BME280;65652;53.132;18.026;2023-12-20T20:36:08;99776.32;;;5.37;71.08
76728;BME280;65652;53.132;18.026;2023-12-20T20:38:35;99774.08;;;5.34;71.29
76728;BME280;65652;53.132;18.026;2023-12-20T20:41:02;99782.20;;;5.34;71.72
76728;BME280;65652;53.132;18.026;2023-12-20T20:43:28;99773.97;;;5.31;71.71
76728;BME280;65652;53.132;18.026;2023-12-20T20:45:54;99780.20;;;5.30;71.90
76728;BME280;65652;53.132;18.026;2023-12-20T20:48:20;99777.96;;;5.28;71.90
76728;BME280;65652;53.132;18.026;2023-12-20T20:50:47;99777.44;;;5.28;72.09
76728;BME280;65652;53.132;18.026;2023-12-20T20:53:13;99783.04;;;5.27;71.96
76728;BME280;65652;53.132;18.026;2023-12-20T20:55:39;99784.59;;;5.26;72.48
76728;BME280;65652;53.132;18.026;2023-12-20T20:58:05;99791.27;;;5.27;72.30
76728;BME280;65652;53.132;18.026;2023-12-20T21:00:31;99790.78;;;5.29;72.39
76728;BME280;65652;53.132;18.026;2023-12-20T21:02:58;99798.13;;;5.29;72.27
76728;BME280;65652;53.132;18.026;2023-12-20T21:05:24;99793.89;;;5.30;71.85
76728;BME280;65652;53.132;18.026;2023-12-20T21:07:50;99795.28;;;5.32;71.90
76728;BME280;65652;53.132;18.026;2023-12-20T21:10:16;99792.44;;;5.35;72.01
76728;BME280;65652;53.132;18.026;2023-12-20T21:12:43;99792.46;;;5.35;72.02
76728;BME280;65652;53.132;18.026;2023-12-20T21:15:10;99793.45;;;5.33;72.42
76728;BME280;65652;53.132;18.026;2023-12-20T21:17:40;99785.90;;;5.31;72.02
76728;BME280;65652;53.132;18.026;2023-12-20T21:20:11;99799.51;;;5.34;72.03